createdAt,value
2017-06-26T00:00:09.947Z,18
2017-06-26T00:01:09.146Z,18
2017-06-26T00:02:08.730Z,18
2017-06-26T00:03:07.940Z,17.9
2017-06-26T00:04:07.784Z,17.9
2017-06-26T00:05:06.983Z,17.8
2017-06-26T00:06:05.949Z,17.8
2017-06-26T00:07:05.525Z,17.8
2017-06-26T00:08:04.602Z,17.8
2017-06-26T00:10:03.834Z,17.7
2017-06-26T00:11:02.591Z,17.7
2017-06-26T00:12:02.174Z,17.7
2017-06-26T00:13:01.371Z,17.6
2017-06-26T00:14:01.071Z,17.6
2017-06-26T00:15:00.268Z,17.6
2017-06-26T00:15:59.724Z,17.6
2017-06-26T00:16:58.934Z,17.6
2017-06-26T00:17:58.134Z,17.6
2017-06-26T00:18:57.330Z,17.5
2017-06-26T00:19:56.908Z,17.5
2017-06-26T00:20:56.102Z,17.5
2017-06-26T00:21:56.059Z,17.5
2017-06-26T00:22:54.778Z,17.5
2017-06-26T00:23:53.989Z,17.5
2017-06-26T00:24:53.571Z,17.5
2017-06-26T00:25:52.769Z,17.5
2017-06-26T00:26:52.472Z,17.5
2017-06-26T00:27:51.924Z,17.4
2017-06-26T00:29:50.007Z,17.4
2017-06-26T00:30:49.709Z,17.4
2017-06-26T00:31:48.789Z,17.5
2017-06-26T00:32:48.484Z,17.5
2017-06-26T00:34:47.318Z,17.4
2017-06-26T00:36:45.402Z,17.4
2017-06-26T00:37:45.108Z,17.4
2017-06-26T00:38:44.297Z,17.4
2017-06-26T00:39:43.491Z,17.4
2017-06-26T00:40:42.818Z,17.4
2017-06-26T00:41:42.014Z,17.4
2017-06-26T00:42:41.711Z,17.4
2017-06-26T00:43:40.917Z,17.4
2017-06-26T00:44:40.121Z,17.4
2017-06-26T00:45:39.823Z,17.4
2017-06-26T00:46:39.273Z,17.3
2017-06-26T00:47:38.463Z,17.3
2017-06-26T00:48:37.672Z,17.3
2017-06-26T00:49:36.632Z,17.4
2017-06-26T00:50:36.228Z,17.3
2017-06-26T00:51:35.819Z,17.4
2017-06-26T00:52:35.147Z,17.3
2017-06-26T00:53:34.343Z,17.3
2017-06-26T00:54:33.538Z,17.3
2017-06-26T00:55:33.691Z,17.4
2017-06-26T00:56:32.385Z,17.4
2017-06-26T00:57:31.466Z,17.4
2017-06-26T00:58:30.975Z,17.4
2017-06-26T00:59:30.188Z,17.4
2017-06-26T01:00:29.390Z,17.4
2017-06-26T01:01:29.089Z,17.5
2017-06-26T01:02:28.284Z,17.5
2017-06-26T01:03:27.359Z,17.5
2017-06-26T01:04:27.189Z,17.5
2017-06-26T01:05:26.380Z,17.5
2017-06-26T01:06:26.135Z,17.5
2017-06-26T01:07:24.905Z,17.5
2017-06-26T01:08:24.108Z,17.5
2017-06-26T01:09:23.193Z,17.6
2017-06-26T01:10:23.144Z,17.5
2017-06-26T01:11:22.905Z,17.5
2017-06-26T01:12:21.601Z,17.6
2017-06-26T01:13:20.800Z,17.6
2017-06-26T01:14:20.268Z,17.6
2017-06-26T01:15:19.349Z,17.6
2017-06-26T01:17:18.192Z,17.6
2017-06-26T01:18:17.393Z,17.6
2017-06-26T01:19:16.590Z,17.6
2017-06-26T01:20:16.319Z,17.6
2017-06-26T01:21:15.519Z,17.6
2017-06-26T01:22:14.607Z,17.6
2017-06-26T01:23:14.561Z,17.6
2017-06-26T01:24:13.261Z,17.6
2017-06-26T01:25:12.956Z,17.6
2017-06-26T01:26:12.155Z,17.6
2017-06-26T01:27:11.121Z,17.6
2017-06-26T01:28:10.703Z,17.6
2017-06-26T01:29:10.434Z,17.6
2017-06-26T01:30:09.516Z,17.5
2017-06-26T01:31:08.718Z,17.5
2017-06-26T01:32:07.918Z,17.5
2017-06-26T01:33:07.619Z,17.5
2017-06-26T01:33:38.126Z,17.5
2017-06-26T01:34:08.637Z,17.5
2017-06-26T01:35:06.075Z,17.5
2017-06-26T01:36:05.150Z,17.5
2017-06-26T01:37:04.856Z,17.5
2017-06-26T01:38:03.948Z,17.5
2017-06-26T01:39:03.143Z,17.5
2017-06-26T01:40:02.982Z,17.5
2017-06-26T01:41:02.180Z,17.5
2017-06-26T01:42:01.380Z,17.5
2017-06-26T01:43:00.579Z,17.5
2017-06-26T01:43:59.774Z,17.5
2017-06-26T01:44:59.484Z,17.5
2017-06-26T01:45:58.939Z,17.5
2017-06-26T01:46:58.137Z,17.5
2017-06-26T01:47:57.219Z,17.5
2017-06-26T01:48:56.412Z,17.5
2017-06-26T01:49:55.994Z,17.6
2017-06-26T01:50:55.228Z,17.6
2017-06-26T01:51:55.062Z,17.6
2017-06-26T01:52:54.018Z,17.6
2017-06-26T01:53:53.219Z,17.6
2017-06-26T01:54:52.410Z,17.6
2017-06-26T01:55:52.106Z,17.6
2017-06-26T01:56:51.301Z,17.6
2017-06-26T01:57:50.753Z,17.6
2017-06-26T01:58:49.838Z,17.6
2017-06-26T01:59:48.919Z,17.7
2017-06-26T02:00:48.619Z,17.7
2017-06-26T02:01:47.704Z,17.7
2017-06-26T02:02:47.406Z,17.7
2017-06-26T02:04:46.250Z,17.7
2017-06-26T02:05:44.977Z,17.8
2017-06-26T02:06:44.559Z,17.8
2017-06-26T02:07:43.755Z,17.8
2017-06-26T02:08:43.455Z,17.8
2017-06-26T02:09:42.657Z,17.8
2017-06-26T02:10:42.108Z,17.8
2017-06-26T02:11:41.310Z,17.8
2017-06-26T02:12:40.522Z,17.8
2017-06-26T02:13:39.722Z,17.8
2017-06-26T02:14:39.424Z,17.8
2017-06-26T02:15:39.062Z,17.8
2017-06-26T02:16:38.174Z,17.8
2017-06-26T02:17:37.374Z,17.8
2017-06-26T02:18:36.568Z,17.8
2017-06-26T02:19:35.769Z,17.8
2017-06-26T02:20:34.959Z,17.8
2017-06-26T02:21:34.660Z,17.8
2017-06-26T02:22:34.107Z,17.8
2017-06-26T02:23:33.360Z,17.8
2017-06-26T02:24:32.565Z,17.8
2017-06-26T02:25:31.766Z,17.9
2017-06-26T02:26:30.961Z,17.9
2017-06-26T02:27:30.664Z,17.9
2017-06-26T02:28:30.107Z,17.9
2017-06-26T02:29:29.306Z,17.9
2017-06-26T02:30:28.502Z,18
2017-06-26T02:31:27.585Z,18
2017-06-26T02:32:27.294Z,18
2017-06-26T02:33:26.486Z,18
2017-06-26T02:34:25.828Z,18
2017-06-26T02:35:25.033Z,18.1
2017-06-26T02:36:24.230Z,18.1
2017-06-26T02:37:23.697Z,18.1
2017-06-26T02:38:23.056Z,18.1
2017-06-26T02:39:22.255Z,18.2
2017-06-26T02:40:22.208Z,18.2
2017-06-26T02:41:20.903Z,18.2
2017-06-26T02:42:20.599Z,18.2
2017-06-26T02:43:19.800Z,18.2
2017-06-26T02:44:18.881Z,18.2
2017-06-26T02:45:18.576Z,18.2
2017-06-26T02:47:17.411Z,18.2
2017-06-26T02:48:16.595Z,18.3
2017-06-26T02:49:15.776Z,18.3
2017-06-26T02:50:14.960Z,18.3
2017-06-26T02:51:14.690Z,18.3
2017-06-26T02:52:13.879Z,18.4
2017-06-26T02:53:13.327Z,18.4
2017-06-26T02:54:12.518Z,18.3
2017-06-26T02:55:11.580Z,18.4
2017-06-26T02:56:11.268Z,18.4
2017-06-26T02:57:10.453Z,18.4
2017-06-26T02:58:09.644Z,18.4
2017-06-26T02:59:09.591Z,18.4
2017-06-26T03:00:08.654Z,18.4
2017-06-26T03:01:07.840Z,18.4
2017-06-26T03:02:07.026Z,18.4
2017-06-26T03:03:06.597Z,18.4
2017-06-26T03:04:05.780Z,18.4
2017-06-26T03:05:05.222Z,18.4
2017-06-26T03:06:04.675Z,18.4
2017-06-26T03:07:03.861Z,18.4
2017-06-26T03:08:03.072Z,18.4
2017-06-26T03:09:02.767Z,18.4
2017-06-26T03:10:01.842Z,18.4
2017-06-26T03:11:01.668Z,18.4
2017-06-26T03:12:00.348Z,18.4
2017-06-26T03:13:00.045Z,18.4
2017-06-26T03:13:59.232Z,18.4
2017-06-26T03:14:58.421Z,18.4
2017-06-26T03:15:57.760Z,18.4
2017-06-26T03:16:57.760Z,18.5
2017-06-26T03:17:56.442Z,18.5
2017-06-26T03:18:55.771Z,18.5
2017-06-26T03:19:55.337Z,18.5
2017-06-26T03:20:54.522Z,18.5
2017-06-26T03:21:54.091Z,18.5
2017-06-26T03:22:53.556Z,18.5
2017-06-26T03:23:52.746Z,18.5
2017-06-26T03:24:51.818Z,18.5
2017-06-26T03:25:51.507Z,18.5
2017-06-26T03:26:50.687Z,18.5
2017-06-26T03:27:49.937Z,18.5
2017-06-26T03:28:49.385Z,18.5
2017-06-26T03:29:48.572Z,18.5
2017-06-26T03:30:48.268Z,18.5
2017-06-26T03:31:47.456Z,18.5
2017-06-26T03:32:46.645Z,18.5
2017-06-26T03:33:45.985Z,18.5
2017-06-26T03:34:45.508Z,18.6
2017-06-26T03:35:44.693Z,18.6
2017-06-26T03:36:43.876Z,18.5
2017-06-26T03:37:43.568Z,18.5
2017-06-26T03:38:42.750Z,18.5
2017-06-26T03:39:41.938Z,18.6
2017-06-26T03:40:41.878Z,18.5
2017-06-26T03:41:40.947Z,18.6
2017-06-26T03:42:40.130Z,18.6
2017-06-26T03:43:39.695Z,18.6
2017-06-26T03:44:38.888Z,18.5
2017-06-26T03:45:38.074Z,18.5
2017-06-26T03:46:37.577Z,18.5
2017-06-26T03:47:36.644Z,18.5
2017-06-26T03:48:36.215Z,18.5
2017-06-26T03:49:35.400Z,18.5
2017-06-26T03:50:35.085Z,18.5
2017-06-26T03:51:34.266Z,18.5
2017-06-26T03:52:33.702Z,18.5
2017-06-26T03:53:03.693Z,18.5
2017-06-26T03:53:34.064Z,18.5
2017-06-26T03:54:04.439Z,18.5
2017-06-26T03:54:34.946Z,18.5
2017-06-26T03:55:31.615Z,18.5
2017-06-26T03:56:31.187Z,18.5
2017-06-26T03:57:30.374Z,18.5
2017-06-26T03:58:29.814Z,18.5
2017-06-26T03:59:29.145Z,18.4
2017-06-26T04:00:28.325Z,18.4
2017-06-26T04:01:27.509Z,18.4
2017-06-26T04:02:27.203Z,18.4
2017-06-26T04:03:26.279Z,18.4
2017-06-26T04:04:26.218Z,18.4
2017-06-26T04:05:24.906Z,18.4
2017-06-26T04:06:24.477Z,18.4
2017-06-26T04:07:23.661Z,18.4
2017-06-26T04:08:23.348Z,18.4
2017-06-26T04:09:22.529Z,18.4
2017-06-26T04:10:21.972Z,18.4
2017-06-26T04:11:20.915Z,18.4
2017-06-26T04:12:20.491Z,18.4
2017-06-26T04:13:19.832Z,18.4
2017-06-26T04:14:19.287Z,18.4
2017-06-26T04:14:49.551Z,18.4
2017-06-26T04:15:20.050Z,18.4
2017-06-26T04:16:17.730Z,18.4
2017-06-26T04:17:17.416Z,18.4
2017-06-26T04:18:16.602Z,18.4
2017-06-26T04:19:15.548Z,18.4
2017-06-26T04:20:14.998Z,18.3
2017-06-26T04:21:14.816Z,18.3
2017-06-26T04:22:13.890Z,18.3
2017-06-26T04:23:13.082Z,18.3
2017-06-26T04:24:12.775Z,18.3
2017-06-26T04:25:11.851Z,18.3
2017-06-26T04:26:11.301Z,18.2
2017-06-26T04:27:11.619Z,18.2
2017-06-26T04:28:10.215Z,18.2
2017-06-26T04:29:09.404Z,18.2
2017-06-26T04:30:08.593Z,18.2
2017-06-26T04:31:08.292Z,18.2
2017-06-26T04:32:07.484Z,18.2
2017-06-26T04:33:06.926Z,18.2
2017-06-26T04:34:05.997Z,18.2
2017-06-26T04:35:05.180Z,18.2
2017-06-26T04:36:04.867Z,18.2
2017-06-26T04:37:04.054Z,18.2
2017-06-26T04:38:03.630Z,18.2
2017-06-26T04:39:03.076Z,18.2
2017-06-26T04:40:02.147Z,18.2
2017-06-26T04:41:01.480Z,18.2
2017-06-26T04:43:00.051Z,18.2
2017-06-26T04:43:59.628Z,18.2
2017-06-26T04:44:59.069Z,18.2
2017-06-26T04:46:57.666Z,18.3
2017-06-26T04:47:56.855Z,18.3
2017-06-26T04:49:55.323Z,18.3
2017-06-26T04:51:54.535Z,18.3
2017-06-26T04:52:53.714Z,18.3
2017-06-26T04:53:52.899Z,18.3
2017-06-26T04:54:52.078Z,18.3
2017-06-26T04:55:51.762Z,18.3
2017-06-26T04:56:50.830Z,18.3
2017-06-26T04:57:50.553Z,18.3
2017-06-26T04:58:49.502Z,18.3
2017-06-26T05:00:48.109Z,18.2
2017-06-26T05:01:47.863Z,18.2
2017-06-26T05:03:46.691Z,18.2
2017-06-26T05:05:45.262Z,18.2
2017-06-26T05:06:44.447Z,18.1
2017-06-26T05:07:43.628Z,18.1
2017-06-26T05:08:43.318Z,18.1
2017-06-26T05:09:43.084Z,18.1
2017-06-26T05:10:41.761Z,18.2
2017-06-26T05:11:40.982Z,18.2
2017-06-26T05:12:40.674Z,18.2
2017-06-26T05:13:39.872Z,18.2
2017-06-26T05:14:39.635Z,18.2
2017-06-26T05:15:39.149Z,18.2
2017-06-26T05:16:37.830Z,18.3
2017-06-26T05:17:37.010Z,18.2
2017-06-26T05:18:36.707Z,18.3
2017-06-26T05:19:35.884Z,18.3
2017-06-26T05:20:35.068Z,18.3
2017-06-26T05:21:34.505Z,18.4
2017-06-26T05:22:33.695Z,18.3
2017-06-26T05:23:33.389Z,18.4
2017-06-26T05:24:32.483Z,18.4
2017-06-26T05:25:31.671Z,18.4
2017-06-26T05:26:31.363Z,18.4
2017-06-26T05:27:30.806Z,18.5
2017-06-26T05:28:29.761Z,18.4
2017-06-26T05:29:29.330Z,18.4
2017-06-26T05:30:28.396Z,18.5
2017-06-26T05:31:28.082Z,18.4
2017-06-26T05:32:27.266Z,18.5
2017-06-26T05:33:26.589Z,18.5
2017-06-26T05:34:26.339Z,18.6
2017-06-26T05:35:25.522Z,18.5
2017-06-26T05:36:24.706Z,18.6
2017-06-26T05:37:23.897Z,18.6
2017-06-26T05:38:23.096Z,18.6
2017-06-26T05:39:23.046Z,18.6
2017-06-26T05:40:22.228Z,18.6
2017-06-26T05:41:21.299Z,18.7
2017-06-26T05:42:20.490Z,18.7
2017-06-26T05:43:20.181Z,18.8
2017-06-26T05:44:19.367Z,18.8
2017-06-26T05:45:18.697Z,18.8
2017-06-26T05:46:17.909Z,18.9
2017-06-26T05:48:16.990Z,18.9
2017-06-26T05:49:16.055Z,18.9
2017-06-26T05:50:15.509Z,18.9
2017-06-26T05:51:14.946Z,19
2017-06-26T05:52:14.126Z,19
2017-06-26T05:53:13.309Z,19
2017-06-26T05:54:13.003Z,19
2017-06-26T05:55:12.187Z,19.1
2017-06-26T05:56:11.378Z,19.1
2017-06-26T05:58:10.711Z,19
2017-06-26T05:59:09.396Z,19.1
2017-06-26T06:00:08.982Z,19
2017-06-26T06:01:08.169Z,19.1
2017-06-26T06:02:07.867Z,19.1
2017-06-26T06:03:07.129Z,19.2
2017-06-26T06:04:06.454Z,19.2
2017-06-26T06:05:05.523Z,19.2
2017-06-26T06:06:05.092Z,19.3
2017-06-26T06:07:04.483Z,19.3
2017-06-26T06:08:03.703Z,19.3
2017-06-26T06:09:03.286Z,19.2
2017-06-26T06:10:02.616Z,19.1
2017-06-26T06:11:01.565Z,19.1
2017-06-26T06:12:01.014Z,19.1
2017-06-26T06:13:00.705Z,19.1
2017-06-26T06:13:59.893Z,19.1
2017-06-26T06:14:59.077Z,19
2017-06-26T06:15:59.017Z,19
2017-06-26T06:16:58.200Z,19
2017-06-26T06:17:57.388Z,19
2017-06-26T06:18:56.455Z,19
2017-06-26T06:19:56.030Z,19
2017-06-26T06:20:55.098Z,19
2017-06-26T06:21:54.924Z,19
2017-06-26T06:22:54.106Z,19
2017-06-26T06:23:53.297Z,19
2017-06-26T06:24:52.876Z,19
2017-06-26T06:25:52.062Z,18.9
2017-06-26T06:26:52.267Z,19
2017-06-26T06:27:51.084Z,18.9
2017-06-26T06:28:50.143Z,18.9
2017-06-26T06:29:49.715Z,18.9
2017-06-26T06:30:48.900Z,19
2017-06-26T06:31:48.088Z,18.9
2017-06-26T06:32:47.772Z,18.9
2017-06-26T06:33:47.209Z,18.9
2017-06-26T06:34:46.398Z,18.9
2017-06-26T06:35:45.582Z,19
2017-06-26T06:36:45.271Z,18.9
2017-06-26T06:37:44.450Z,19
2017-06-26T06:38:43.897Z,19
2017-06-26T06:39:43.222Z,19
2017-06-26T06:40:42.400Z,19
2017-06-26T06:41:42.090Z,19
2017-06-26T06:42:41.334Z,19
2017-06-26T06:43:40.521Z,19
2017-06-26T06:44:39.713Z,19
2017-06-26T06:45:39.663Z,19.1
2017-06-26T06:46:38.728Z,19.1
2017-06-26T06:47:37.909Z,19
2017-06-26T06:48:37.600Z,19.1
2017-06-26T06:49:36.790Z,19.1
2017-06-26T06:50:36.000Z,19.1
2017-06-26T06:51:35.834Z,19.1
2017-06-26T06:52:35.034Z,19
2017-06-26T06:53:34.233Z,19
2017-06-26T06:54:33.419Z,19
2017-06-26T06:55:33.119Z,19
2017-06-26T06:56:32.311Z,19
2017-06-26T06:57:31.641Z,19
2017-06-26T06:58:30.837Z,19
2017-06-26T06:59:30.534Z,19
2017-06-26T07:00:29.736Z,19
2017-06-26T07:01:28.942Z,19
2017-06-26T07:02:28.642Z,19
2017-06-26T07:03:28.099Z,19
2017-06-26T07:04:27.294Z,19
2017-06-26T07:05:26.487Z,19
2017-06-26T07:06:26.073Z,19
2017-06-26T07:07:25.275Z,19
2017-06-26T07:08:25.047Z,19.1
2017-06-26T07:09:24.061Z,19
2017-06-26T07:10:23.263Z,19.1
2017-06-26T07:11:22.861Z,19.1
2017-06-26T07:12:21.939Z,19.1
2017-06-26T07:13:21.141Z,19.1
2017-06-26T07:14:20.849Z,19.1
2017-06-26T07:15:20.176Z,19.1
2017-06-26T07:16:19.383Z,19.2
2017-06-26T07:17:18.462Z,19.2
2017-06-26T07:18:17.945Z,19.2
2017-06-26T07:19:17.523Z,19.1
2017-06-26T07:20:17.114Z,19.2
2017-06-26T07:22:15.833Z,19.1
2017-06-26T07:23:15.618Z,19.1
2017-06-26T07:24:14.313Z,19.1
2017-06-26T07:25:13.728Z,19.1
2017-06-26T07:26:12.931Z,19.1
2017-06-26T07:27:12.522Z,19.2
2017-06-26T07:28:11.985Z,19.1
2017-06-26T07:29:11.193Z,19.2
2017-06-26T07:30:10.401Z,19.2
2017-06-26T07:31:09.875Z,19.2
2017-06-26T07:32:09.102Z,19.2
2017-06-26T07:33:08.375Z,19.2
2017-06-26T07:34:08.893Z,19.1
2017-06-26T07:35:07.084Z,19.2
2017-06-26T07:36:06.815Z,19.2
2017-06-26T07:37:06.082Z,19.1
2017-06-26T07:38:05.282Z,19.1
2017-06-26T07:39:04.979Z,19.1
2017-06-26T07:40:04.195Z,19.1
2017-06-26T07:41:03.161Z,19.1
2017-06-26T07:42:02.869Z,19
2017-06-26T07:43:02.220Z,19
2017-06-26T07:44:01.416Z,19
2017-06-26T07:45:00.991Z,19.1
2017-06-26T07:46:00.401Z,19.1
2017-06-26T07:47:00.160Z,19.1
2017-06-26T07:47:58.862Z,19.1
2017-06-26T07:48:58.457Z,19.2
2017-06-26T07:49:57.745Z,19.2
2017-06-26T07:50:57.023Z,19.3
2017-06-26T07:51:56.985Z,19.2
2017-06-26T07:52:55.697Z,19.2
2017-06-26T07:53:55.394Z,19.3
2017-06-26T07:54:55.035Z,19.2
2017-06-26T07:55:53.734Z,19.3
2017-06-26T07:56:53.200Z,19.3
2017-06-26T07:57:52.921Z,19.3
2017-06-26T07:58:51.885Z,19.3
2017-06-26T07:59:51.356Z,19.2
2017-06-26T08:00:50.568Z,19.2
2017-06-26T08:01:50.281Z,19.1
2017-06-26T08:02:49.477Z,18.8
2017-06-26T08:04:48.390Z,18.2
2017-06-26T08:05:47.601Z,18.1
2017-06-26T08:07:46.248Z,17.7
2017-06-26T08:08:45.460Z,17.6
2017-06-26T08:09:45.172Z,17.4
2017-06-26T08:10:44.691Z,17.3
2017-06-26T08:11:43.902Z,17.2
2017-06-26T08:12:43.113Z,17.1
2017-06-26T08:13:42.249Z,17
2017-06-26T08:14:41.962Z,16.9
2017-06-26T08:15:41.163Z,16.8
2017-06-26T08:16:40.608Z,16.8
2017-06-26T08:17:39.720Z,16.8
2017-06-26T08:18:38.969Z,16.8
2017-06-26T08:19:38.684Z,16.8
2017-06-26T08:20:37.897Z,16.9
2017-06-26T08:21:37.557Z,16.9
2017-06-26T08:22:37.001Z,16.9
2017-06-26T08:23:35.711Z,16.9
2017-06-26T08:24:35.310Z,16.9
2017-06-26T08:25:34.520Z,16.9
2017-06-26T08:26:33.611Z,17
2017-06-26T08:27:33.316Z,17.1
2017-06-26T08:28:32.656Z,17.2
2017-06-26T08:30:31.243Z,17.2
2017-06-26T08:31:30.442Z,17.2
2017-06-26T08:32:29.647Z,17.1
2017-06-26T08:33:29.115Z,17.1
2017-06-26T08:34:28.620Z,17.1
2017-06-26T08:35:27.818Z,17.2
2017-06-26T08:36:27.025Z,17.2
2017-06-26T08:38:25.605Z,17
2017-06-26T08:39:25.312Z,17
2017-06-26T08:40:24.670Z,16.9
2017-06-26T08:41:23.867Z,17
2017-06-26T08:42:22.952Z,16.8
2017-06-26T08:43:22.530Z,16.9
2017-06-26T08:44:21.799Z,16.9
2017-06-26T08:45:20.885Z,17
2017-06-26T08:46:20.730Z,17.1
2017-06-26T08:47:19.698Z,17.1
2017-06-26T08:48:18.895Z,17.2
2017-06-26T08:49:18.916Z,17.4
2017-06-26T08:50:17.618Z,17.4
2017-06-26T08:51:16.700Z,17.4
2017-06-26T08:53:16.626Z,17.5
2017-06-26T08:54:15.079Z,17.7
2017-06-26T08:55:14.172Z,17.8
2017-06-26T08:56:13.887Z,17.8
2017-06-26T08:57:13.146Z,17.8
2017-06-26T09:00:11.389Z,17.7
2017-06-26T09:01:10.467Z,17.5
2017-06-26T09:02:09.679Z,17.5
2017-06-26T09:03:08.880Z,17.6
2017-06-26T09:04:08.080Z,17.5
2017-06-26T09:05:07.754Z,17.4
2017-06-26T09:06:07.217Z,17.3
2017-06-26T09:07:06.425Z,17.3
2017-06-26T09:08:05.505Z,17.3
2017-06-26T09:10:04.476Z,17.1
2017-06-26T09:11:03.677Z,17.2
2017-06-26T09:12:03.144Z,17.2
2017-06-26T09:14:01.506Z,17.2
2017-06-26T09:15:00.720Z,17.2
2017-06-26T09:16:00.433Z,17.2
2017-06-26T09:16:59.404Z,17.3
2017-06-26T09:17:59.360Z,17.3
2017-06-26T09:18:57.943Z,17.4
2017-06-26T09:19:57.524Z,17.4
2017-06-26T09:20:56.608Z,17.3
2017-06-26T09:21:56.130Z,17.2
2017-06-26T09:22:55.329Z,17.2
2017-06-26T09:23:55.170Z,17.2
2017-06-26T09:24:54.366Z,17
2017-06-26T09:25:54.133Z,17
2017-06-26T09:27:52.217Z,16.9
2017-06-26T09:28:51.414Z,16.9
2017-06-26T09:29:50.876Z,16.8
2017-06-26T09:30:50.080Z,16.8
2017-06-26T09:31:49.286Z,16.7
2017-06-26T09:32:48.496Z,16.8
2017-06-26T09:33:48.141Z,16.7
2017-06-26T09:34:47.917Z,16.7
2017-06-26T09:35:46.694Z,16.7
2017-06-26T09:36:45.770Z,16.7
2017-06-26T09:37:45.468Z,16.7
2017-06-26T09:38:44.558Z,16.7
2017-06-26T09:39:44.346Z,16.7
2017-06-26T09:40:43.436Z,16.7
2017-06-26T09:41:42.897Z,16.7
2017-06-26T09:42:42.109Z,16.7
2017-06-26T09:43:41.309Z,16.7
2017-06-26T09:44:40.512Z,16.7
2017-06-26T09:45:39.787Z,16.7
2017-06-26T09:46:38.984Z,16.7
2017-06-26T09:47:38.950Z,16.6
2017-06-26T09:48:37.657Z,16.6
2017-06-26T09:49:37.118Z,16.5
2017-06-26T09:50:36.276Z,16.4
2017-06-26T09:51:35.356Z,16.3
2017-06-26T09:53:34.615Z,16.3
2017-06-26T09:54:33.826Z,16.1
2017-06-26T09:55:32.912Z,16.1
2017-06-26T09:56:32.503Z,16.1
2017-06-26T09:58:30.977Z,16.1
2017-06-26T09:59:30.386Z,16
2017-06-26T10:00:29.363Z,16
2017-06-26T10:01:29.027Z,16
2017-06-26T10:02:28.012Z,16
2017-06-26T10:03:27.219Z,16
2017-06-26T10:04:26.802Z,15.9
2017-06-26T10:05:26.135Z,16
2017-06-26T10:06:25.335Z,16
2017-06-26T10:07:24.554Z,15.9
2017-06-26T10:08:23.754Z,16
2017-06-26T10:09:24.017Z,16
2017-06-26T10:10:22.721Z,16
2017-06-26T10:11:22.066Z,15.9
2017-06-26T10:12:21.138Z,16
2017-06-26T10:13:20.337Z,16
2017-06-26T10:14:20.035Z,16
2017-06-26T10:15:19.289Z,16.1
2017-06-26T10:16:18.407Z,16
2017-06-26T10:17:17.920Z,16
2017-06-26T10:18:17.132Z,16
2017-06-26T10:19:16.220Z,16.1
2017-06-26T10:20:15.424Z,16.2
2017-06-26T10:21:14.896Z,16.2
2017-06-26T10:22:14.057Z,16.3
2017-06-26T10:23:14.013Z,16.4
2017-06-26T10:24:12.701Z,16.6
2017-06-26T10:25:11.985Z,16.6
2017-06-26T10:26:11.133Z,16.6
2017-06-26T10:27:10.716Z,16.6
2017-06-26T10:28:09.920Z,16.7
2017-06-26T10:29:09.376Z,16.9
2017-06-26T10:30:08.472Z,16.9
2017-06-26T10:31:08.185Z,17
2017-06-26T10:32:07.264Z,17
2017-06-26T10:33:06.343Z,17.1
2017-06-26T10:34:06.039Z,17.1
2017-06-26T10:34:36.743Z,17.1
2017-06-26T10:35:07.009Z,17.1
2017-06-26T10:35:37.522Z,17.1
2017-06-26T10:37:03.778Z,17.1
2017-06-26T10:38:03.359Z,17.2
2017-06-26T10:39:02.571Z,17.3
2017-06-26T10:40:01.936Z,17.4
2017-06-26T10:41:01.027Z,17.5
2017-06-26T10:42:01.177Z,17.5
2017-06-26T10:42:59.862Z,17.5
2017-06-26T10:43:59.069Z,17.7
2017-06-26T10:44:58.158Z,17.8
2017-06-26T10:45:58.115Z,17.8
2017-06-26T10:46:56.857Z,17.8
2017-06-26T10:47:56.447Z,17.9
2017-06-26T10:48:55.745Z,18
2017-06-26T10:49:54.903Z,17.9
2017-06-26T10:50:54.103Z,17.9
2017-06-26T10:51:53.938Z,17.9
2017-06-26T10:52:53.150Z,17.9
2017-06-26T10:53:52.239Z,17.9
2017-06-26T10:54:51.316Z,17.9
2017-06-26T10:55:51.024Z,17.9
2017-06-26T10:56:50.105Z,18.1
2017-06-26T10:57:49.924Z,18.1
2017-06-26T10:58:48.504Z,18.1
2017-06-26T10:59:48.213Z,18.1
2017-06-26T11:00:47.486Z,18.2
2017-06-26T11:02:46.077Z,18.3
2017-06-26T11:03:45.906Z,18.4
2017-06-26T11:04:44.600Z,18.5
2017-06-26T11:05:44.303Z,18.6
2017-06-26T11:06:43.498Z,18.6
2017-06-26T11:07:42.694Z,18.5
2017-06-26T11:08:42.282Z,18.4
2017-06-26T11:09:41.740Z,18.4
2017-06-26T11:10:41.000Z,18.4
2017-06-26T11:11:40.199Z,18.4
2017-06-26T11:12:39.289Z,18.5
2017-06-26T11:13:38.866Z,18.5
2017-06-26T11:14:37.955Z,18.5
2017-06-26T11:15:37.916Z,18.6
2017-06-26T11:16:36.691Z,18.6
2017-06-26T11:17:36.394Z,18.6
2017-06-26T11:19:34.981Z,18.7
2017-06-26T11:20:34.182Z,19
2017-06-26T11:21:33.697Z,19
2017-06-26T11:22:32.883Z,19
2017-06-26T11:23:32.092Z,19.2
2017-06-26T11:24:31.803Z,19.3
2017-06-26T11:25:30.883Z,19.5
2017-06-26T11:26:30.073Z,19.6
2017-06-26T11:27:29.912Z,19.6
2017-06-26T11:28:29.123Z,19.6
2017-06-26T11:30:27.718Z,19.5
2017-06-26T11:31:27.310Z,19.3
2017-06-26T11:33:26.157Z,19.6
2017-06-26T11:34:25.244Z,19.6
2017-06-26T11:35:24.273Z,19.7
2017-06-26T11:36:23.989Z,20
2017-06-26T11:37:22.833Z,20
2017-06-26T11:38:22.531Z,20
2017-06-26T11:39:21.982Z,20.1
2017-06-26T11:40:21.196Z,20.1
2017-06-26T11:41:20.402Z,20.1
2017-06-26T11:42:20.112Z,20.1
2017-06-26T11:43:19.314Z,20.2
2017-06-26T11:44:18.521Z,19.9
2017-06-26T11:46:17.869Z,20.2
2017-06-26T11:47:16.621Z,20.1
2017-06-26T11:48:16.336Z,19.9
2017-06-26T11:49:15.318Z,20.2
2017-06-26T11:50:14.792Z,20.1
2017-06-26T11:52:14.022Z,20
2017-06-26T11:53:13.228Z,19.9
2017-06-26T11:54:12.416Z,20
2017-06-26T11:55:12.002Z,19.9
2017-06-26T11:56:11.193Z,19.9
2017-06-26T11:57:10.952Z,20
2017-06-26T11:58:09.921Z,20
2017-06-26T11:59:09.502Z,19.8
2017-06-26T12:00:08.698Z,19.8
2017-06-26T12:01:07.895Z,19.7
2017-06-26T12:03:06.986Z,19.5
2017-06-26T12:04:06.253Z,19.4
2017-06-26T12:05:05.445Z,19.4
2017-06-26T12:06:05.299Z,19.4
2017-06-26T12:07:04.264Z,19.4
2017-06-26T12:08:03.344Z,19.5
2017-06-26T12:09:03.360Z,19.4
2017-06-26T12:10:02.445Z,19.4
2017-06-26T12:11:01.914Z,19.5
2017-06-26T12:12:01.195Z,19.5
2017-06-26T12:13:00.275Z,19.5
2017-06-26T12:14:00.006Z,19.5
2017-06-26T12:14:59.521Z,19.5
2017-06-26T12:15:58.611Z,19.4
2017-06-26T12:16:57.812Z,19.4
2017-06-26T12:17:57.517Z,19.4
2017-06-26T12:18:56.729Z,19.5
2017-06-26T12:19:55.840Z,19.4
2017-06-26T12:20:55.571Z,19.4
2017-06-26T12:21:54.771Z,19.4
2017-06-26T12:22:54.362Z,19.4
2017-06-26T12:23:54.146Z,19.3
2017-06-26T12:24:53.229Z,19.4
2017-06-26T12:25:53.006Z,19.3
2017-06-26T12:26:51.843Z,19.3
2017-06-26T12:27:50.928Z,19.2
2017-06-26T12:28:50.629Z,19.2
2017-06-26T12:29:49.822Z,19.2
2017-06-26T12:30:49.035Z,19.2
2017-06-26T12:31:48.731Z,19.2
2017-06-26T12:32:48.063Z,19.2
2017-06-26T12:33:47.266Z,19.2
2017-06-26T12:34:46.743Z,19.2
2017-06-26T12:35:46.553Z,19.1
2017-06-26T12:36:45.314Z,19.2
2017-06-26T12:37:44.903Z,19.2
2017-06-26T12:38:44.352Z,19.2
2017-06-26T12:39:43.539Z,19.2
2017-06-26T12:41:42.005Z,19.1
2017-06-26T12:42:41.589Z,19.1
2017-06-26T12:43:40.666Z,19.1
2017-06-26T12:44:40.612Z,19
2017-06-26T12:45:39.701Z,19
2017-06-26T12:46:38.779Z,19
2017-06-26T12:47:38.483Z,19.1
2017-06-26T12:48:37.630Z,19.1
2017-06-26T12:49:37.239Z,19.1
2017-06-26T12:50:36.704Z,19.2
2017-06-26T12:51:35.782Z,19.2
2017-06-26T12:52:06.165Z,19.2
2017-06-26T12:52:36.676Z,19.2
2017-06-26T12:53:07.182Z,19.2
2017-06-26T12:53:37.617Z,19.2
2017-06-26T12:54:33.800Z,19.3
2017-06-26T12:55:33.534Z,19.4
2017-06-26T12:56:32.878Z,19.4
2017-06-26T12:57:32.080Z,19.4
2017-06-26T12:58:31.666Z,19.4
2017-06-26T12:59:30.745Z,19.5
2017-06-26T13:00:30.326Z,19.5
2017-06-26T13:01:29.412Z,19.4
2017-06-26T13:02:29.358Z,19.4
2017-06-26T13:03:28.205Z,19.4
2017-06-26T13:04:28.349Z,19.4
2017-06-26T13:05:26.932Z,19.5
2017-06-26T13:06:26.408Z,19.5
2017-06-26T13:07:25.608Z,19.6
2017-06-26T13:08:25.442Z,19.6
2017-06-26T13:09:24.664Z,19.5
2017-06-26T13:10:23.866Z,19.6
2017-06-26T13:11:23.472Z,19.6
2017-06-26T13:12:22.680Z,19.6
2017-06-26T13:13:21.881Z,19.5
2017-06-26T13:14:21.704Z,19.5
2017-06-26T13:15:20.910Z,19.4
2017-06-26T13:16:19.991Z,19.4
2017-06-26T13:17:19.564Z,19.4
2017-06-26T13:18:18.764Z,19.4
2017-06-26T13:19:17.974Z,19.4
2017-06-26T13:20:17.994Z,19.5
2017-06-26T13:21:17.192Z,19.5
2017-06-26T13:22:16.390Z,19.4
2017-06-26T13:23:15.586Z,19.5
2017-06-26T13:24:15.292Z,19.4
2017-06-26T13:25:14.386Z,19.3
2017-06-26T13:26:13.894Z,19.2
2017-06-26T13:27:13.372Z,19.2
2017-06-26T13:28:12.573Z,19.2
2017-06-26T13:29:11.775Z,19.2
2017-06-26T13:30:12.062Z,19.3
2017-06-26T13:31:10.763Z,19.3
2017-06-26T13:32:10.235Z,19.3
2017-06-26T13:33:09.435Z,19.2
2017-06-26T13:34:08.639Z,19.3
2017-06-26T13:35:08.227Z,19.2
2017-06-26T13:36:07.319Z,19.2
2017-06-26T13:37:07.602Z,19.2
2017-06-26T13:38:06.408Z,19.1
2017-06-26T13:39:05.618Z,19.1
2017-06-26T13:40:05.203Z,19
2017-06-26T13:41:04.162Z,19
2017-06-26T13:42:03.620Z,19
2017-06-26T13:43:03.575Z,19
2017-06-26T13:44:02.270Z,19
2017-06-26T13:45:02.540Z,19
2017-06-26T13:46:01.001Z,19